sensor_id;sensor_type;location;lat;lon;timestamp;P1;P2;P0
72854;PMS7003;60991;51.278;22.550;2023-01-28T00:00:28;13.33;8.67;7.00
72854;PMS7003;60991;51.278;22.550;2023-01-28T00:01:58;6.00;6.00;5.25
72854;PMS7003;60991;51.278;22.550;2023-01-28T00:03:29;5.00;5.00;4.33
72854;PMS7003;60991;51.278;22.550;2023-01-28T00:04:59;6.33;5.00;4.33
72854;PMS7003;60991;51.278;22.550;2023-01-28T00:06:29;5.50;5.50;5.00
72854;PMS7003;60991;51.278;22.550;2023-01-28T00:07:59;7.00;5.00;4.00
72854;PMS7003;60991;51.278;22.550;2023-01-28T00:09:29;6.67;5.67;4.00
72854;PMS7003;60991;51.278;22.550;2023-01-28T00:11:00;6.33;6.33;5.67
72854;PMS7003;60991;51.278;22.550;2023-01-28T00:12:31;7.50;5.50;4.50
72854;PMS7003;60991;51.278;22.550;2023-01-28T00:14:01;5.67;5.67;4.00
72854;PMS7003;60991;51.278;22.550;2023-01-28T00:15:32;5.00;5.00;4.00
72854;PMS7003;60991;51.278;22.550;2023-01-28T00:17:03;7.00;7.00;5.00
72854;PMS7003;60991;51.278;22.550;2023-01-28T00:18:34;7.50;7.25;4.25
72854;PMS7003;60991;51.278;22.550;2023-01-28T00:20:05;9.50;7.25;4.00
72854;PMS7003;60991;51.278;22.550;2023-01-28T00:21:36;7.00;4.00;2.00
72854;PMS7003;60991;51.278;22.550;2023-01-28T00:23:06;8.00;7.00;4.33
72854;PMS7003;60991;51.278;22.550;2023-01-28T00:24:37;7.00;5.00;4.00
72854;PMS7003;60991;51.278;22.550;2023-01-28T00:26:08;7.00;7.00;5.00
72854;PMS7003;60991;51.278;22.550;2023-01-28T00:27:40;8.00;7.00;5.00
72854;PMS7003;60991;51.278;22.550;2023-01-28T00:29:10;8.67;7.33;4.67
72854;PMS7003;60991;51.278;22.550;2023-01-28T00:30:41;13.75;10.25;6.50
72854;PMS7003;60991;51.278;22.550;2023-01-28T00:32:11;10.00;8.00;7.00
72854;PMS7003;60991;51.278;22.550;2023-01-28T00:33:41;6.50;4.25;2.50
72854;PMS7003;60991;51.278;22.550;2023-01-28T00:35:13;11.00;7.00;5.00
72854;PMS7003;60991;51.278;22.550;2023-01-28T00:36:43;7.50;4.00;4.00
72854;PMS7003;60991;51.278;22.550;2023-01-28T00:38:13;14.00;7.33;6.33
72854;PMS7003;60991;51.278;22.550;2023-01-28T00:39:43;10.67;5.67;4.33
72854;PMS7003;60991;51.278;22.550;2023-01-28T00:41:14;5.67;5.67;5.00
72854;PMS7003;60991;51.278;22.550;2023-01-28T00:42:46;7.50;7.00;6.50
72854;PMS7003;60991;51.278;22.550;2023-01-28T00:44:17;10.00;7.00;5.00
72854;PMS7003;60991;51.278;22.550;2023-01-28T00:45:47;11.50;10.00;7.00
72854;PMS7003;60991;51.278;22.550;2023-01-28T00:47:17;9.33;7.67;5.00
72854;PMS7003;60991;51.278;22.550;2023-01-28T00:48:47;5.33;5.33;3.33
72854;PMS7003;60991;51.278;22.550;2023-01-28T00:50:18;13.00;12.33;7.00
72854;PMS7003;60991;51.278;22.550;2023-01-28T00:51:48;5.50;4.75;4.00
72854;PMS7003;60991;51.278;22.550;2023-01-28T00:53:19;17.75;11.50;6.25
72854;PMS7003;60991;51.278;22.550;2023-01-28T00:54:49;6.67;6.33;4.00
72854;PMS7003;60991;51.278;22.550;2023-01-28T00:56:20;7.50;7.00;4.75
72854;PMS7003;60991;51.278;22.550;2023-01-28T00:57:50;7.00;7.00;5.00
72854;PMS7003;60991;51.278;22.550;2023-01-28T00:59:20;8.67;7.33;5.00
72854;PMS7003;60991;51.278;22.550;2023-01-28T01:00:50;10.33;6.67;5.67
72854;PMS7003;60991;51.278;22.550;2023-01-28T01:02:21;7.50;7.25;4.00
72854;PMS7003;60991;51.278;22.550;2023-01-28T01:03:52;6.00;6.00;4.25
72854;PMS7003;60991;51.278;22.550;2023-01-28T01:05:23;7.25;7.25;5.00
72854;PMS7003;60991;51.278;22.550;2023-01-28T01:06:53;10.00;8.67;7.00
72854;PMS7003;60991;51.278;22.550;2023-01-28T01:08:24;12.33;9.33;7.67
72854;PMS7003;60991;51.278;22.550;2023-01-28T01:09:54;8.00;6.33;5.00
72854;PMS7003;60991;51.278;22.550;2023-01-28T01:11:24;7.33;5.67;5.00
72854;PMS7003;60991;51.278;22.550;2023-01-28T01:12:55;7.25;6.50;4.00
72854;PMS7003;60991;51.278;22.550;2023-01-28T01:14:25;14.00;10.00;7.00
72854;PMS7003;60991;51.278;22.550;2023-01-28T01:16:11;13.00;11.00;5.00
72854;PMS7003;60991;51.278;22.550;2023-01-28T01:17:48;8.75;3.75;3.50
72854;PMS7003;60991;51.278;22.550;2023-01-28T01:19:19;10.00;8.00;7.00
72854;PMS7003;60991;51.278;22.550;2023-01-28T01:20:49;8.67;7.00;5.00
72854;PMS7003;60991;51.278;22.550;2023-01-28T01:22:19;9.00;7.00;6.33
72854;PMS7003;60991;51.278;22.550;2023-01-28T01:23:49;9.00;7.33;4.00
72854;PMS7003;60991;51.278;22.550;2023-01-28T01:25:20;9.25;7.75;5.00
72854;PMS7003;60991;51.278;22.550;2023-01-28T01:26:51;11.75;9.50;7.00
72854;PMS7003;60991;51.278;22.550;2023-01-28T01:28:21;8.00;5.00;4.00
72854;PMS7003;60991;51.278;22.550;2023-01-28T01:29:52;10.50;7.00;5.00
72854;PMS7003;60991;51.278;22.550;2023-01-28T01:31:22;12.33;8.00;7.00
72854;PMS7003;60991;51.278;22.550;2023-01-28T01:32:52;8.25;4.50;3.50
72854;PMS7003;60991;51.278;22.550;2023-01-28T01:34:22;10.00;7.00;5.00
72854;PMS7003;60991;51.278;22.550;2023-01-28T01:35:53;11.00;7.50;5.00
72854;PMS7003;60991;51.278;22.550;2023-01-28T01:37:24;10.00;7.25;5.50
72854;PMS7003;60991;51.278;22.550;2023-01-28T01:38:54;6.33;6.33;4.33
72854;PMS7003;60991;51.278;22.550;2023-01-28T01:40:24;12.50;9.00;6.00
72854;PMS7003;60991;51.278;22.550;2023-01-28T01:41:54;7.00;5.00;4.33
72854;PMS7003;60991;51.278;22.550;2023-01-28T01:43:25;12.33;8.00;5.00
72854;PMS7003;60991;51.278;22.550;2023-01-28T01:45:16;9.00;9.00;5.00
72854;PMS7003;60991;51.278;22.550;2023-01-28T01:46:48;9.00;6.50;5.00
72854;PMS7003;60991;51.278;22.550;2023-01-28T01:48:22;5.00;5.00;2.00
72854;PMS7003;60991;51.278;22.550;2023-01-28T01:50:06;6.00;5.00;4.00
72854;PMS7003;60991;51.278;22.550;2023-01-28T01:51:56;10.50;4.25;4.00
72854;PMS7003;60991;51.278;22.550;2023-01-28T01:53:39;9.50;8.00;6.00
72854;PMS7003;60991;51.278;22.550;2023-01-28T01:55:13;11.50;10.00;7.00
72854;PMS7003;60991;51.278;22.550;2023-01-28T01:56:48;7.00;6.50;6.00
72854;PMS7003;60991;51.278;22.550;2023-01-28T01:58:20;8.50;5.50;4.50
72854;PMS7003;60991;51.278;22.550;2023-01-28T01:59:55;7.25;5.00;4.00
72854;PMS7003;60991;51.278;22.550;2023-01-28T02:01:27;10.75;7.50;6.50
72854;PMS7003;60991;51.278;22.550;2023-01-28T02:03:00;10.00;7.50;7.00
72854;PMS7003;60991;51.278;22.550;2023-01-28T02:04:32;7.50;7.00;5.00
72854;PMS7003;60991;51.278;22.550;2023-01-28T02:06:06;9.50;9.50;6.50
72854;PMS7003;60991;51.278;22.550;2023-01-28T02:07:37;7.75;7.50;5.50
72854;PMS7003;60991;51.278;22.550;2023-01-28T02:09:28;10.50;6.00;5.00
72854;PMS7003;60991;51.278;22.550;2023-01-28T02:11:01;10.00;9.50;7.00
72854;PMS7003;60991;51.278;22.550;2023-01-28T02:12:35;16.75;10.50;6.50
72854;PMS7003;60991;51.278;22.550;2023-01-28T02:14:07;11.00;7.25;5.50
72854;PMS7003;60991;51.278;22.550;2023-01-28T02:15:38;8.00;7.00;5.00
72854;PMS7003;60991;51.278;22.550;2023-01-28T02:17:08;14.00;7.50;5.00
72854;PMS7003;60991;51.278;22.550;2023-01-28T02:18:39;10.75;8.00;5.00
72854;PMS7003;60991;51.278;22.550;2023-01-28T02:20:10;9.00;7.75;6.00
72854;PMS7003;60991;51.278;22.550;2023-01-28T02:21:47;11.00;8.00;8.00
72854;PMS7003;60991;51.278;22.550;2023-01-28T02:23:37;18.50;9.50;7.00
72854;PMS7003;60991;51.278;22.550;2023-01-28T02:25:26;9.00;6.00;4.00
72854;PMS7003;60991;51.278;22.550;2023-01-28T02:29:02;17.00;10.00;7.00
72854;PMS7003;60991;51.278;22.550;2023-01-28T02:30:47;7.25;6.50;4.75
72854;PMS7003;60991;51.278;22.550;2023-01-28T02:32:28;9.00;6.50;4.00
72854;PMS7003;60991;51.278;22.550;2023-01-28T02:34:28;12.00;10.00;7.00
72854;PMS7003;60991;51.278;22.550;2023-01-28T02:36:16;8.50;5.00;5.00
72854;PMS7003;60991;51.278;22.550;2023-01-28T02:37:53;13.00;9.00;5.00
72854;PMS7003;60991;51.278;22.550;2023-01-28T02:39:32;6.50;1.75;1.75
72854;PMS7003;60991;51.278;22.550;2023-01-28T02:41:08;9.50;5.50;5.00
72854;PMS7003;60991;51.278;22.550;2023-01-28T02:42:44;7.75;7.75;5.00
72854;PMS7003;60991;51.278;22.550;2023-01-28T02:44:14;13.50;8.00;4.50
72854;PMS7003;60991;51.278;22.550;2023-01-28T02:45:45;2.00;1.33;1.00
72854;PMS7003;60991;51.278;22.550;2023-01-28T02:47:15;16.25;10.75;7.00
72854;PMS7003;60991;51.278;22.550;2023-01-28T02:48:45;9.00;7.25;5.00
72854;PMS7003;60991;51.278;22.550;2023-01-28T02:50:16;10.75;8.00;5.00
72854;PMS7003;60991;51.278;22.550;2023-01-28T02:55:52;18.75;4.75;4.75
72854;PMS7003;60991;51.278;22.550;2023-01-28T02:57:35;7.75;5.00;4.00
72854;PMS7003;60991;51.278;22.550;2023-01-28T03:00:48;9.50;6.50;4.50
72854;PMS7003;60991;51.278;22.550;2023-01-28T03:04:07;10.50;8.00;4.75
72854;PMS7003;60991;51.278;22.550;2023-01-28T03:05:49;6.50;5.00;4.25
72854;PMS7003;60991;51.278;22.550;2023-01-28T03:07:25;2.75;2.50;2.50
72854;PMS7003;60991;51.278;22.550;2023-01-28T03:08:59;9.75;7.75;4.75
72854;PMS7003;60991;51.278;22.550;2023-01-28T03:10:34;12.25;7.00;5.00
72854;PMS7003;60991;51.278;22.550;2023-01-28T03:12:11;12.75;11.50;7.25
72854;PMS7003;60991;51.278;22.550;2023-01-28T03:13:47;9.00;7.25;5.50
72854;PMS7003;60991;51.278;22.550;2023-01-28T03:15:19;11.00;8.00;7.00
72854;PMS7003;60991;51.278;22.550;2023-01-28T03:16:53;8.50;7.50;6.00
72854;PMS7003;60991;51.278;22.550;2023-01-28T03:18:29;12.25;8.00;7.00
72854;PMS7003;60991;51.278;22.550;2023-01-28T03:20:06;12.50;9.50;7.50
72854;PMS7003;60991;51.278;22.550;2023-01-28T03:21:38;13.75;9.50;5.00
72854;PMS7003;60991;51.278;22.550;2023-01-28T03:23:12;12.75;6.50;4.75
72854;PMS7003;60991;51.278;22.550;2023-01-28T03:24:47;7.25;6.50;5.00
72854;PMS7003;60991;51.278;22.550;2023-01-28T03:26:21;16.50;7.75;6.50
72854;PMS7003;60991;51.278;22.550;2023-01-28T03:28:04;7.75;5.00;5.00
72854;PMS7003;60991;51.278;22.550;2023-01-28T03:29:39;9.50;8.00;5.00
72854;PMS7003;60991;51.278;22.550;2023-01-28T03:31:11;9.25;7.00;6.00
72854;PMS7003;60991;51.278;22.550;2023-01-28T03:32:44;11.00;9.25;5.00
72854;PMS7003;60991;51.278;22.550;2023-01-28T03:34:15;13.50;8.50;5.50
72854;PMS7003;60991;51.278;22.550;2023-01-28T03:35:47;7.75;7.25;5.50
72854;PMS7003;60991;51.278;22.550;2023-01-28T03:37:18;13.75;11.00;7.00
72854;PMS7003;60991;51.278;22.550;2023-01-28T03:38:48;4.25;4.25;4.00
72854;PMS7003;60991;51.278;22.550;2023-01-28T03:40:19;9.50;6.75;5.50
72854;PMS7003;60991;51.278;22.550;2023-01-28T03:43:30;8.75;4.00;3.00
72854;PMS7003;60991;51.278;22.550;2023-01-28T03:45:00;8.25;5.25;4.25
72854;PMS7003;60991;51.278;22.550;2023-01-28T03:46:31;6.00;5.00;4.00
72854;PMS7003;60991;51.278;22.550;2023-01-28T03:48:01;9.67;7.00;7.00
72854;PMS7003;60991;51.278;22.550;2023-01-28T03:49:31;9.67;7.67;6.33
72854;PMS7003;60991;51.278;22.550;2023-01-28T03:51:01;8.67;7.67;5.00
72854;PMS7003;60991;51.278;22.550;2023-01-28T03:52:32;12.75;7.00;4.50
72854;PMS7003;60991;51.278;22.550;2023-01-28T03:54:02;7.50;6.50;4.75
72854;PMS7003;60991;51.278;22.550;2023-01-28T03:55:32;7.25;7.00;5.50
72854;PMS7003;60991;51.278;22.550;2023-01-28T03:57:03;11.00;10.00;7.67
72854;PMS7003;60991;51.278;22.550;2023-01-28T03:58:33;9.25;7.75;5.00
72854;PMS7003;60991;51.278;22.550;2023-01-28T04:00:03;8.67;7.33;7.00
72854;PMS7003;60991;51.278;22.550;2023-01-28T04:01:34;12.75;10.50;7.50
72854;PMS7003;60991;51.278;22.550;2023-01-28T04:03:05;9.33;8.00;6.33
72854;PMS7003;60991;51.278;22.550;2023-01-28T04:04:38;12.25;10.75;7.00
72854;PMS7003;60991;51.278;22.550;2023-01-28T04:06:09;8.50;8.00;7.00
72854;PMS7003;60991;51.278;22.550;2023-01-28T04:07:39;8.00;8.00;6.33
72854;PMS7003;60991;51.278;22.550;2023-01-28T04:09:09;9.33;8.00;6.33
72854;PMS7003;60991;51.278;22.550;2023-01-28T04:10:40;10.00;8.00;6.33
72854;PMS7003;60991;51.278;22.550;2023-01-28T04:12:10;12.00;9.25;7.25
72854;PMS7003;60991;51.278;22.550;2023-01-28T04:13:41;8.25;7.75;5.00
72854;PMS7003;60991;51.278;22.550;2023-01-28T04:15:12;11.00;7.75;5.50
72854;PMS7003;60991;51.278;22.550;2023-01-28T04:16:42;9.25;7.75;7.00
72854;PMS7003;60991;51.278;22.550;2023-01-28T04:18:12;13.25;9.75;8.00
72854;PMS7003;60991;51.278;22.550;2023-01-28T04:19:42;12.00;9.33;7.00
72854;PMS7003;60991;51.278;22.550;2023-01-28T04:21:13;15.00;8.00;4.67
72854;PMS7003;60991;51.278;22.550;2023-01-28T04:22:43;12.50;11.00;7.50
72854;PMS7003;60991;51.278;22.550;2023-01-28T04:24:13;16.00;13.00;9.33
72854;PMS7003;60991;51.278;22.550;2023-01-28T04:25:45;17.50;14.00;8.25
72854;PMS7003;60991;51.278;22.550;2023-01-28T04:27:19;10.25;10.25;7.00
72854;PMS7003;60991;51.278;22.550;2023-01-28T04:28:49;17.33;11.00;8.00
72854;PMS7003;60991;51.278;22.550;2023-01-28T04:30:19;11.00;11.00;8.00
72854;PMS7003;60991;51.278;22.550;2023-01-28T04:31:49;22.00;16.50;10.00
72854;PMS7003;60991;51.278;22.550;2023-01-28T04:33:20;17.00;16.67;9.67
72854;PMS7003;60991;51.278;22.550;2023-01-28T04:34:50;13.25;10.50;8.00
72854;PMS7003;60991;51.278;22.550;2023-01-28T04:36:20;20.67;13.33;8.00
72854;PMS7003;60991;51.278;22.550;2023-01-28T04:37:51;20.50;16.25;11.00
72854;PMS7003;60991;51.278;22.550;2023-01-28T04:39:21;17.00;14.00;10.00
72854;PMS7003;60991;51.278;22.550;2023-01-28T04:40:51;25.00;16.50;11.00
72854;PMS7003;60991;51.278;22.550;2023-01-28T04:42:22;21.25;12.25;9.50
72854;PMS7003;60991;51.278;22.550;2023-01-28T04:43:52;14.67;14.67;10.00
72854;PMS7003;60991;51.278;22.550;2023-01-28T04:45:23;17.00;16.67;11.33
72854;PMS7003;60991;51.278;22.550;2023-01-28T04:46:53;24.50;17.00;11.75
72854;PMS7003;60991;51.278;22.550;2023-01-28T04:48:23;24.00;15.00;11.00
72854;PMS7003;60991;51.278;22.550;2023-01-28T04:49:54;19.75;18.00;14.00
72854;PMS7003;60991;51.278;22.550;2023-01-28T04:51:24;23.67;15.33;9.33
72854;PMS7003;60991;51.278;22.550;2023-01-28T04:52:54;19.00;14.67;12.00
72854;PMS7003;60991;51.278;22.550;2023-01-28T04:54:24;20.33;16.33;12.33
72854;PMS7003;60991;51.278;22.550;2023-01-28T04:55:55;23.50;18.75;10.25
72854;PMS7003;60991;51.278;22.550;2023-01-28T04:57:26;26.25;21.75;14.75
72854;PMS7003;60991;51.278;22.550;2023-01-28T04:58:56;18.00;16.00;12.00
72854;PMS7003;60991;51.278;22.550;2023-01-28T05:00:26;21.67;18.33;12.00
72854;PMS7003;60991;51.278;22.550;2023-01-28T05:01:56;20.75;14.25;10.75
72854;PMS7003;60991;51.278;22.550;2023-01-28T05:03:26;24.33;17.33;11.00
72854;PMS7003;60991;51.278;22.550;2023-01-28T05:04:57;21.25;15.50;12.00
72854;PMS7003;60991;51.278;22.550;2023-01-28T05:06:27;22.33;18.00;12.33
72854;PMS7003;60991;51.278;22.550;2023-01-28T05:07:57;16.33;14.67;10.67
72854;PMS7003;60991;51.278;22.550;2023-01-28T05:09:28;23.50;17.75;12.00
72854;PMS7003;60991;51.278;22.550;2023-01-28T05:10:58;15.00;14.67;11.33
72854;PMS7003;60991;51.278;22.550;2023-01-28T05:12:28;20.67;16.67;10.00
72854;PMS7003;60991;51.278;22.550;2023-01-28T05:13:58;17.67;16.00;10.00
72854;PMS7003;60991;51.278;22.550;2023-01-28T05:15:29;14.00;14.00;10.25
72854;PMS7003;60991;51.278;22.550;2023-01-28T05:16:59;17.00;13.67;9.33
72854;PMS7003;60991;51.278;22.550;2023-01-28T05:18:29;17.33;16.67;10.00
72854;PMS7003;60991;51.278;22.550;2023-01-28T05:20:00;19.67;14.67;10.67
72854;PMS7003;60991;51.278;22.550;2023-01-28T05:21:30;18.25;14.50;11.00
72854;PMS7003;60991;51.278;22.550;2023-01-28T05:23:00;13.33;11.33;8.67
72854;PMS7003;60991;51.278;22.550;2023-01-28T05:24:30;14.67;8.00;4.67
72854;PMS7003;60991;51.278;22.550;2023-01-28T05:26:00;17.33;17.00;11.00
72854;PMS7003;60991;51.278;22.550;2023-01-28T05:27:31;17.33;14.67;10.67
72854;PMS7003;60991;51.278;22.550;2023-01-28T05:29:02;24.50;14.50;11.00
72854;PMS7003;60991;51.278;22.550;2023-01-28T05:30:33;13.75;13.75;10.00
72854;PMS7003;60991;51.278;22.550;2023-01-28T05:32:03;15.50;14.00;11.00
72854;PMS7003;60991;51.278;22.550;2023-01-28T05:33:33;22.00;16.50;10.00
72854;PMS7003;60991;51.278;22.550;2023-01-28T05:35:04;18.00;14.00;8.00
72854;PMS7003;60991;51.278;22.550;2023-01-28T05:36:34;15.75;14.50;10.75
72854;PMS7003;60991;51.278;22.550;2023-01-28T05:38:04;19.00;17.00;12.33
72854;PMS7003;60991;51.278;22.550;2023-01-28T05:39:35;20.75;16.00;10.50
72854;PMS7003;60991;51.278;22.550;2023-01-28T05:41:05;19.00;13.33;10.33
72854;PMS7003;60991;51.278;22.550;2023-01-28T05:42:35;20.33;17.67;8.00
72854;PMS7003;60991;51.278;22.550;2023-01-28T05:44:05;18.00;13.67;10.00
72854;PMS7003;60991;51.278;22.550;2023-01-28T05:45:35;20.00;15.00;10.33
72854;PMS7003;60991;51.278;22.550;2023-01-28T05:47:06;16.67;12.33;10.67
72854;PMS7003;60991;51.278;22.550;2023-01-28T05:48:37;19.75;15.25;10.75
72854;PMS7003;60991;51.278;22.550;2023-01-28T05:50:11;29.00;15.00;8.67
72854;PMS7003;60991;51.278;22.550;2023-01-28T05:51:43;18.25;15.00;12.00
72854;PMS7003;60991;51.278;22.550;2023-01-28T05:53:13;26.33;15.67;10.67
72854;PMS7003;60991;51.278;22.550;2023-01-28T05:54:43;16.00;14.33;10.67
72854;PMS7003;60991;51.278;22.550;2023-01-28T05:56:13;19.67;12.67;8.67
72854;PMS7003;60991;51.278;22.550;2023-01-28T05:57:43;20.67;17.00;11.00
72854;PMS7003;60991;51.278;22.550;2023-01-28T05:59:14;17.00;11.67;5.67
72854;PMS7003;60991;51.278;22.550;2023-01-28T06:00:44;20.67;12.67;10.33
72854;PMS7003;60991;51.278;22.550;2023-01-28T06:02:14;27.00;15.50;10.25
72854;PMS7003;60991;51.278;22.550;2023-01-28T06:03:44;19.33;16.33;11.00
72854;PMS7003;60991;51.278;22.550;2023-01-28T06:05:15;12.67;12.67;10.00
72854;PMS7003;60991;51.278;22.550;2023-01-28T06:06:45;17.50;14.75;11.00
72854;PMS7003;60991;51.278;22.550;2023-01-28T06:08:15;20.50;17.00;11.00
72854;PMS7003;60991;51.278;22.550;2023-01-28T06:09:45;19.00;14.00;10.25
72854;PMS7003;60991;51.278;22.550;2023-01-28T06:11:16;22.67;16.33;8.67
72854;PMS7003;60991;51.278;22.550;2023-01-28T06:12:46;24.67;17.33;12.33
72854;PMS7003;60991;51.278;22.550;2023-01-28T06:14:16;20.00;14.00;8.50
72854;PMS7003;60991;51.278;22.550;2023-01-28T06:15:49;21.33;21.00;12.00
72854;PMS7003;60991;51.278;22.550;2023-01-28T06:17:19;20.50;20.00;13.75
72854;PMS7003;60991;51.278;22.550;2023-01-28T06:18:50;30.00;20.00;13.33
72854;PMS7003;60991;51.278;22.550;2023-01-28T06:20:20;17.67;11.67;10.00
72854;PMS7003;60991;51.278;22.550;2023-01-28T06:21:50;22.33;17.00;12.33
72854;PMS7003;60991;51.278;22.550;2023-01-28T06:23:20;24.00;17.67;13.33
72854;PMS7003;60991;51.278;22.550;2023-01-28T06:24:50;25.33;16.67;12.33
72854;PMS7003;60991;51.278;22.550;2023-01-28T06:26:21;27.67;22.33;13.67
72854;PMS7003;60991;51.278;22.550;2023-01-28T06:27:51;19.33;19.33;13.00
72854;PMS7003;60991;51.278;22.550;2023-01-28T06:29:21;27.33;17.67;12.00
72854;PMS7003;60991;51.278;22.550;2023-01-28T06:30:52;28.00;21.75;14.00
72854;PMS7003;60991;51.278;22.550;2023-01-28T06:32:22;21.25;15.25;10.75
72854;PMS7003;60991;51.278;22.550;2023-01-28T06:33:52;30.33;24.00;15.33
72854;PMS7003;60991;51.278;22.550;2023-01-28T06:35:23;22.00;20.00;14.00
72854;PMS7003;60991;51.278;22.550;2023-01-28T06:36:53;34.00;24.25;15.50
72854;PMS7003;60991;51.278;22.550;2023-01-28T06:38:23;32.67;25.33;17.00
72854;PMS7003;60991;51.278;22.550;2023-01-28T06:39:54;33.00;22.33;15.33
72854;PMS7003;60991;51.278;22.550;2023-01-28T06:41:24;36.33;30.00;17.33
72854;PMS7003;60991;51.278;22.550;2023-01-28T06:42:54;20.33;17.00;12.67
72854;PMS7003;60991;51.278;22.550;2023-01-28T06:44:24;31.33;26.00;15.67
72854;PMS7003;60991;51.278;22.550;2023-01-28T06:45:58;30.50;26.00;17.00
72854;PMS7003;60991;51.278;22.550;2023-01-28T06:47:28;29.75;25.75;14.50
72854;PMS7003;60991;51.278;22.550;2023-01-28T06:48:58;38.67;28.33;17.00
72854;PMS7003;60991;51.278;22.550;2023-01-28T06:50:29;36.67;28.00;17.00
72854;PMS7003;60991;51.278;22.550;2023-01-28T06:51:59;40.67;33.33;19.67
72854;PMS7003;60991;51.278;22.550;2023-01-28T06:53:29;30.67;28.33;17.00
72854;PMS7003;60991;51.278;22.550;2023-01-28T06:54:59;36.50;29.25;18.25
72854;PMS7003;60991;51.278;22.550;2023-01-28T06:56:29;36.67;26.67;17.67
72854;PMS7003;60991;51.278;22.550;2023-01-28T06:58:00;54.00;38.00;22.75
72854;PMS7003;60991;51.278;22.550;2023-01-28T06:59:30;49.67;37.67;22.33
72854;PMS7003;60991;51.278;22.550;2023-01-28T07:01:00;41.33;32.67;21.67
72854;PMS7003;60991;51.278;22.550;2023-01-28T07:02:30;37.67;31.00;20.67
72854;PMS7003;60991;51.278;22.550;2023-01-28T07:04:00;46.67;33.33;18.67
72854;PMS7003;60991;51.278;22.550;2023-01-28T07:05:31;45.67;36.67;20.00
72854;PMS7003;60991;51.278;22.550;2023-01-28T07:07:01;43.00;37.25;25.25
72854;PMS7003;60991;51.278;22.550;2023-01-28T07:08:32;36.25;31.75;20.50
72854;PMS7003;60991;51.278;22.550;2023-01-28T07:10:02;37.50;33.50;21.25
72854;PMS7003;60991;51.278;22.550;2023-01-28T07:11:33;43.75;35.50;22.75
72854;PMS7003;60991;51.278;22.550;2023-01-28T07:13:03;38.00;29.33;18.67
72854;PMS7003;60991;51.278;22.550;2023-01-28T07:14:33;45.00;38.00;21.00
72854;PMS7003;60991;51.278;22.550;2023-01-28T07:16:03;44.00;32.67;22.00
72854;PMS7003;60991;51.278;22.550;2023-01-28T07:17:34;43.00;34.00;20.50
72854;PMS7003;60991;51.278;22.550;2023-01-28T07:19:04;43.00;31.00;18.00
72854;PMS7003;60991;51.278;22.550;2023-01-28T07:20:34;37.50;35.50;20.00
72854;PMS7003;60991;51.278;22.550;2023-01-28T07:22:04;41.33;36.00;21.00
72854;PMS7003;60991;51.278;22.550;2023-01-28T07:23:35;41.00;31.33;18.67
72854;PMS7003;60991;51.278;22.550;2023-01-28T07:25:05;40.33;34.00;19.33
72854;PMS7003;60991;51.278;22.550;2023-01-28T07:26:36;44.50;37.75;23.50
72854;PMS7003;60991;51.278;22.550;2023-01-28T07:28:06;38.33;34.00;18.00
72854;PMS7003;60991;51.278;22.550;2023-01-28T07:29:36;45.25;34.25;21.00
72854;PMS7003;60991;51.278;22.550;2023-01-28T07:31:07;41.00;27.33;18.00
72854;PMS7003;60991;51.278;22.550;2023-01-28T07:32:37;42.67;35.00;21.67
72854;PMS7003;60991;51.278;22.550;2023-01-28T07:34:07;35.33;33.33;21.00
72854;PMS7003;60991;51.278;22.550;2023-01-28T07:35:38;39.00;31.75;21.50
72854;PMS7003;60991;51.278;22.550;2023-01-28T07:37:08;43.00;36.67;20.67
72854;PMS7003;60991;51.278;22.550;2023-01-28T07:38:39;42.50;29.75;18.75
72854;PMS7003;60991;51.278;22.550;2023-01-28T07:40:09;40.00;37.33;21.67
72854;PMS7003;60991;51.278;22.550;2023-01-28T07:41:40;38.00;26.50;14.00
72854;PMS7003;60991;51.278;22.550;2023-01-28T07:43:10;35.00;26.33;13.33
72854;PMS7003;60991;51.278;22.550;2023-01-28T07:44:40;49.67;35.00;21.00
72854;PMS7003;60991;51.278;22.550;2023-01-28T07:46:10;32.67;29.67;19.33
72854;PMS7003;60991;51.278;22.550;2023-01-28T07:47:41;34.33;31.00;18.67
72854;PMS7003;60991;51.278;22.550;2023-01-28T07:49:11;41.00;31.75;21.25
72854;PMS7003;60991;51.278;22.550;2023-01-28T07:50:41;36.67;35.33;21.33
72854;PMS7003;60991;51.278;22.550;2023-01-28T07:52:11;38.33;34.00;17.33
72854;PMS7003;60991;51.278;22.550;2023-01-28T07:53:42;25.75;21.00;15.75
72854;PMS7003;60991;51.278;22.550;2023-01-28T07:55:12;34.33;27.00;15.00
72854;PMS7003;60991;51.278;22.550;2023-01-28T07:56:42;42.00;35.00;21.00
72854;PMS7003;60991;51.278;22.550;2023-01-28T07:58:12;70.00;47.67;25.00
72854;PMS7003;60991;51.278;22.550;2023-01-28T07:59:43;61.33;49.00;27.67
72854;PMS7003;60991;51.278;22.550;2023-01-28T08:01:13;68.33;44.33;28.67
72854;PMS7003;60991;51.278;22.550;2023-01-28T08:02:43;63.67;49.00;25.33
72854;PMS7003;60991;51.278;22.550;2023-01-28T08:04:13;50.67;40.33;22.33
72854;PMS7003;60991;51.278;22.550;2023-01-28T08:05:44;55.00;44.67;25.33
72854;PMS7003;60991;51.278;22.550;2023-01-28T08:07:16;55.75;39.50;24.25
72854;PMS7003;60991;51.278;22.550;2023-01-28T08:08:46;53.33;43.67;24.67
72854;PMS7003;60991;51.278;22.550;2023-01-28T08:10:17;51.00;43.25;24.00
72854;PMS7003;60991;51.278;22.550;2023-01-28T08:11:48;50.75;43.25;26.25
72854;PMS7003;60991;51.278;22.550;2023-01-28T08:13:18;43.00;40.00;21.67
72854;PMS7003;60991;51.278;22.550;2023-01-28T08:14:49;42.25;37.00;23.50
72854;PMS7003;60991;51.278;22.550;2023-01-28T08:16:19;46.67;36.33;21.67
72854;PMS7003;60991;51.278;22.550;2023-01-28T08:17:49;37.33;31.00;18.00
72854;PMS7003;60991;51.278;22.550;2023-01-28T08:19:19;44.00;36.00;20.75
72854;PMS7003;60991;51.278;22.550;2023-01-28T08:20:53;41.75;29.25;19.75
72854;PMS7003;60991;51.278;22.550;2023-01-28T08:22:25;32.75;26.75;17.50
72854;PMS7003;60991;51.278;22.550;2023-01-28T08:23:56;41.00;34.75;21.25
72854;PMS7003;60991;51.278;22.550;2023-01-28T08:25:26;41.67;31.00;21.33
72854;PMS7003;60991;51.278;22.550;2023-01-28T08:26:56;36.33;25.00;14.00
72854;PMS7003;60991;51.278;22.550;2023-01-28T08:28:26;40.00;26.67;13.67
72854;PMS7003;60991;51.278;22.550;2023-01-28T08:29:56;41.67;34.67;17.00
72854;PMS7003;60991;51.278;22.550;2023-01-28T08:31:27;40.67;28.67;18.00
72854;PMS7003;60991;51.278;22.550;2023-01-28T08:32:57;54.33;35.00;22.00
72854;PMS7003;60991;51.278;22.550;2023-01-28T08:34:28;30.00;25.25;15.00
72854;PMS7003;60991;51.278;22.550;2023-01-28T08:36:01;46.00;22.67;17.33
72854;PMS7003;60991;51.278;22.550;2023-01-28T08:37:32;37.50;27.25;16.75
72854;PMS7003;60991;51.278;22.550;2023-01-28T08:39:02;47.33;31.67;19.33
72854;PMS7003;60991;51.278;22.550;2023-01-28T08:40:32;29.25;27.00;16.00
72854;PMS7003;60991;51.278;22.550;2023-01-28T08:42:04;28.25;26.50;15.25
72854;PMS7003;60991;51.278;22.550;2023-01-28T08:43:35;36.25;23.00;17.00
72854;PMS7003;60991;51.278;22.550;2023-01-28T08:45:05;31.50;24.25;15.00
72854;PMS7003;60991;51.278;22.550;2023-01-28T08:46:36;29.00;25.75;16.00